createdAt,value
2019-01-23T00:01:50.480Z,90.10
2019-01-23T00:04:18.643Z,90.60
2019-01-23T00:06:46.899Z,90.80
2019-01-23T00:09:14.889Z,90.90
2019-01-23T00:11:42.863Z,91.10
2019-01-23T00:14:12.833Z,91.30
2019-01-23T00:16:40.826Z,91.10
2019-01-23T00:19:09.940Z,91.00
2019-01-23T00:21:38.116Z,91.20
2019-01-23T00:24:06.576Z,91.30
2019-01-23T00:26:34.667Z,91.40
2019-01-23T00:29:02.840Z,91.40
2019-01-23T00:31:31.017Z,91.30
2019-01-23T00:33:58.985Z,91.30
2019-01-23T00:36:27.164Z,91.20
2019-01-23T00:38:55.129Z,91.30
2019-01-23T00:41:23.130Z,91.60
2019-01-23T00:43:51.169Z,91.70
2019-01-23T00:46:19.061Z,91.70
2019-01-23T00:48:47.109Z,91.70
2019-01-23T00:51:15.154Z,91.60
2019-01-23T00:53:43.153Z,91.10
2019-01-23T00:56:11.120Z,90.60
2019-01-23T00:58:39.089Z,90.40
2019-01-23T01:01:07.662Z,90.00
2019-01-23T01:03:36.243Z,89.00
2019-01-23T01:06:06.948Z,88.80
2019-01-23T01:08:35.163Z,89.10
2019-01-23T01:11:03.236Z,87.10
2019-01-23T01:13:31.181Z,87.20
2019-01-23T01:15:59.279Z,87.30
2019-01-23T01:18:27.256Z,87.40
2019-01-23T01:20:55.190Z,86.20
2019-01-23T01:23:23.279Z,86.90
2019-01-23T01:25:52.320Z,87.30
2019-01-23T01:28:20.662Z,88.10
2019-01-23T01:30:48.817Z,87.00
2019-01-23T01:33:16.806Z,87.50
2019-01-23T01:35:44.874Z,88.10
2019-01-23T01:38:12.829Z,88.30
2019-01-23T01:40:40.919Z,86.80
2019-01-23T01:43:08.991Z,86.70
2019-01-23T01:45:36.940Z,86.40
2019-01-23T01:48:05.141Z,86.60
2019-01-23T01:50:33.176Z,86.40
2019-01-23T01:53:01.173Z,87.10
2019-01-23T01:55:29.245Z,86.90
2019-01-23T01:57:57.319Z,87.40
2019-01-23T02:00:25.490Z,87.20
2019-01-23T02:02:53.462Z,87.50
2019-01-23T02:05:21.746Z,88.10
2019-01-23T02:07:49.699Z,88.70
2019-01-23T02:10:18.391Z,88.00
2019-01-23T02:12:46.569Z,88.40
2019-01-23T02:15:14.637Z,88.80
2019-01-23T02:17:42.610Z,89.40
2019-01-23T02:20:11.566Z,89.20
2019-01-23T02:22:39.572Z,89.20
2019-01-23T02:25:07.516Z,88.30
2019-01-23T02:27:35.485Z,88.00
2019-01-23T02:30:05.626Z,88.80
2019-01-23T02:32:33.497Z,88.40
2019-01-23T02:35:01.469Z,88.90
2019-01-23T02:37:29.416Z,90.30
2019-01-23T02:39:57.379Z,90.00
2019-01-23T02:42:27.386Z,89.60
2019-01-23T02:44:56.870Z,90.00
2019-01-23T02:47:25.001Z,90.10
2019-01-23T02:49:53.155Z,89.80
2019-01-23T02:52:21.335Z,89.60
2019-01-23T02:54:49.521Z,89.30
2019-01-23T02:57:17.601Z,89.30
2019-01-23T02:59:45.563Z,90.00
2019-01-23T03:02:15.211Z,88.80
2019-01-23T03:04:44.239Z,88.50
2019-01-23T03:07:12.215Z,88.40
2019-01-23T03:09:40.411Z,88.50
2019-01-23T03:12:08.583Z,89.00
2019-01-23T03:14:36.758Z,89.20
2019-01-23T03:17:04.719Z,89.20
2019-01-23T03:19:36.181Z,89.10
2019-01-23T03:22:04.651Z,89.40
2019-01-23T03:24:33.286Z,88.60
2019-01-23T03:27:01.215Z,89.10
2019-01-23T03:29:29.288Z,90.10
2019-01-23T03:31:57.747Z,90.20
2019-01-23T03:34:26.050Z,90.30
2019-01-23T03:36:54.118Z,90.70
2019-01-23T03:39:22.190Z,90.90
2019-01-23T03:41:50.659Z,91.20
2019-01-23T03:44:19.259Z,91.20
2019-01-23T03:46:48.918Z,91.40
2019-01-23T03:49:16.932Z,91.70
2019-01-23T03:51:44.828Z,91.70
2019-01-23T03:54:12.841Z,92.10
2019-01-23T03:56:42.023Z,91.80
2019-01-23T03:59:12.071Z,91.70
2019-01-23T04:01:40.161Z,91.30
2019-01-23T04:04:08.443Z,91.30
2019-01-23T04:06:37.606Z,91.10
2019-01-23T04:09:05.705Z,91.50
2019-01-23T04:11:35.015Z,91.40
2019-01-23T04:14:02.945Z,91.60
2019-01-23T04:16:30.925Z,91.60
2019-01-23T04:18:59.324Z,91.60
2019-01-23T04:21:27.296Z,91.70
2019-01-23T04:23:55.265Z,91.90
2019-01-23T04:26:23.337Z,92.20
2019-01-23T04:28:51.388Z,92.10
2019-01-23T04:31:19.889Z,91.80
2019-01-23T04:33:47.859Z,91.80
2019-01-23T04:36:16.136Z,91.90
2019-01-23T04:38:44.104Z,92.20
2019-01-23T04:41:12.075Z,92.10
2019-01-23T04:43:40.229Z,92.50
2019-01-23T04:46:08.222Z,92.50
2019-01-23T04:48:36.189Z,92.50
2019-01-23T04:51:19.831Z,92.60
2019-01-23T04:53:49.609Z,92.80
2019-01-23T04:56:17.886Z,93.00
2019-01-23T04:58:45.984Z,92.90
2019-01-23T05:01:14.057Z,92.90
2019-01-23T05:03:42.212Z,93.00
2019-01-23T05:06:10.409Z,93.00
2019-01-23T05:08:38.680Z,92.70
2019-01-23T05:11:06.811Z,92.40
2019-01-23T05:13:35.027Z,92.10
2019-01-23T05:16:03.213Z,92.10
2019-01-23T05:18:31.377Z,92.60
2019-01-23T05:21:01.563Z,92.10
2019-01-23T05:23:29.262Z,92.30
2019-01-23T05:25:57.235Z,92.40
2019-01-23T05:28:25.684Z,92.50
2019-01-23T05:30:53.887Z,92.30
2019-01-23T05:33:22.095Z,92.20
2019-01-23T05:35:50.551Z,92.40
2019-01-23T05:38:18.716Z,92.20
2019-01-23T05:40:48.446Z,92.10
2019-01-23T05:43:16.806Z,92.10
2019-01-23T05:45:44.877Z,91.90
2019-01-23T05:48:12.847Z,92.00
2019-01-23T05:50:42.708Z,91.80
2019-01-23T05:53:10.837Z,91.90
2019-01-23T05:55:38.777Z,92.00
2019-01-23T05:58:06.983Z,92.10
2019-01-23T06:00:34.934Z,92.20
2019-01-23T06:03:02.922Z,92.20
2019-01-23T06:05:30.868Z,92.40
2019-01-23T06:07:58.827Z,92.20
2019-01-23T06:10:26.827Z,92.30
2019-01-23T06:12:55.868Z,92.70
2019-01-23T06:15:24.197Z,92.40
2019-01-23T06:17:52.270Z,92.40
2019-01-23T06:20:20.551Z,92.60
2019-01-23T06:22:48.492Z,92.60
2019-01-23T06:25:16.488Z,92.50
2019-01-23T06:27:44.452Z,92.50
2019-01-23T06:30:12.402Z,92.30
2019-01-23T06:32:40.701Z,92.40
2019-01-23T06:35:08.677Z,92.50
2019-01-23T06:37:36.609Z,92.50
2019-01-23T06:40:04.688Z,92.70
2019-01-23T06:42:32.758Z,92.10
2019-01-23T06:45:00.857Z,92.30
2019-01-23T06:47:28.929Z,92.40
2019-01-23T06:49:58.904Z,92.20
2019-01-23T06:52:28.689Z,92.00
2019-01-23T06:54:56.799Z,92.00
2019-01-23T06:57:24.900Z,91.80
2019-01-23T06:59:52.855Z,91.80
2019-01-23T07:02:20.947Z,91.80
2019-01-23T07:04:49.015Z,92.00
2019-01-23T07:07:16.955Z,91.90
2019-01-23T07:09:45.055Z,91.90
2019-01-23T07:12:13.130Z,92.20
2019-01-23T07:14:41.073Z,92.00
2019-01-23T07:17:09.486Z,92.10
2019-01-23T07:19:37.649Z,91.90
2019-01-23T07:22:05.619Z,91.60
2019-01-23T07:24:34.119Z,91.40
2019-01-23T07:27:02.070Z,91.60
2019-01-23T07:29:30.141Z,91.70
2019-01-23T07:31:58.197Z,91.70
2019-01-23T07:34:26.181Z,92.00
2019-01-23T07:36:54.668Z,92.60
2019-01-23T07:39:22.837Z,92.60
2019-01-23T07:41:50.913Z,92.20
2019-01-23T07:44:19.059Z,92.00
2019-01-23T07:46:48.741Z,92.00
2019-01-23T07:49:16.764Z,92.30
2019-01-23T07:51:44.709Z,92.70
2019-01-23T07:54:12.703Z,93.50
2019-01-23T07:56:40.884Z,93.90
2019-01-23T07:59:09.946Z,94.40
2019-01-23T08:01:38.044Z,94.70
2019-01-23T08:04:06.094Z,94.50
2019-01-23T08:06:34.180Z,94.80
2019-01-23T08:09:02.262Z,94.70
2019-01-23T08:11:30.523Z,94.30
2019-01-23T08:13:58.640Z,93.90
2019-01-23T08:16:26.581Z,93.90
2019-01-23T08:18:54.960Z,94.00
2019-01-23T08:21:22.931Z,94.20
2019-01-23T08:23:50.897Z,94.60
2019-01-23T08:26:19.049Z,94.50
2019-01-23T08:28:47.011Z,94.60
2019-01-23T08:31:15.194Z,94.50
2019-01-23T08:33:44.109Z,94.70
2019-01-23T08:36:12.152Z,94.60
2019-01-23T08:38:40.362Z,94.60
2019-01-23T08:41:08.628Z,94.70
2019-01-23T08:43:36.701Z,94.70
2019-01-23T08:46:04.978Z,94.50
2019-01-23T08:48:33.048Z,94.60
2019-01-23T08:51:01.008Z,94.50
2019-01-23T08:53:28.987Z,94.60
2019-01-23T08:55:56.958Z,94.30
2019-01-23T08:58:26.625Z,93.50
2019-01-23T09:00:56.373Z,93.50
2019-01-23T09:03:24.320Z,93.60
2019-01-23T09:05:52.393Z,93.60
2019-01-23T09:08:20.487Z,93.40
2019-01-23T09:10:48.429Z,93.40
2019-01-23T09:13:17.377Z,93.30
2019-01-23T09:15:45.629Z,93.50
2019-01-23T09:18:13.571Z,93.10
2019-01-23T09:20:41.571Z,93.30
2019-01-23T09:23:09.949Z,93.20
2019-01-23T09:25:38.120Z,93.20
2019-01-23T09:28:06.191Z,93.00
2019-01-23T09:30:34.162Z,92.70
2019-01-23T09:33:02.221Z,92.80
2019-01-23T09:35:30.405Z,92.90
2019-01-23T09:37:58.377Z,91.90
2019-01-23T09:40:26.320Z,91.70
2019-01-23T09:42:54.313Z,91.90
2019-01-23T09:45:22.363Z,91.20
2019-01-23T09:47:50.458Z,91.60
2019-01-23T09:50:18.607Z,90.70
2019-01-23T09:52:46.777Z,90.70
2019-01-23T09:55:16.603Z,90.80
2019-01-23T09:57:44.668Z,90.40
2019-01-23T10:00:12.966Z,90.80
2019-01-23T10:02:40.917Z,90.80
2019-01-23T10:05:09.009Z,88.00
2019-01-23T10:07:36.981Z,89.20
2019-01-23T10:10:06.413Z,88.10
2019-01-23T10:12:34.557Z,83.60
2019-01-23T10:15:02.936Z,78.50
2019-01-23T10:17:32.518Z,76.00
2019-01-23T10:20:00.566Z,69.60
2019-01-23T10:22:28.788Z,65.90
2019-01-23T10:24:56.963Z,64.80
2019-01-23T10:27:25.273Z,64.60
2019-01-23T10:29:55.403Z,65.50
2019-01-23T10:32:23.511Z,65.70
2019-01-23T10:34:51.474Z,65.60
2019-01-23T10:37:19.699Z,67.60
2019-01-23T10:39:47.827Z,70.60
2019-01-23T10:42:15.821Z,68.80
2019-01-23T10:44:44.096Z,68.30
2019-01-23T10:47:12.173Z,63.00
2019-01-23T10:49:40.133Z,60.40
2019-01-23T10:52:08.214Z,56.80
2019-01-23T10:54:36.185Z,54.90
2019-01-23T10:57:04.333Z,50.80
2019-01-23T10:59:32.307Z,51.10
2019-01-23T11:02:02.028Z,52.00
2019-01-23T11:04:30.132Z,52.90
2019-01-23T11:06:58.403Z,54.20
2019-01-23T11:09:26.642Z,54.30
2019-01-23T11:11:58.214Z,54.60
2019-01-23T11:14:26.186Z,54.20
2019-01-23T11:16:54.459Z,55.40
2019-01-23T11:19:22.432Z,55.40
2019-01-23T11:21:50.595Z,54.40
2019-01-23T11:24:19.993Z,55.70
2019-01-23T11:26:48.487Z,55.30
2019-01-23T11:29:17.592Z,55.00
2019-01-23T11:31:45.656Z,54.10
2019-01-23T11:34:13.931Z,54.30
2019-01-23T11:36:42.178Z,55.20
2019-01-23T11:39:10.183Z,56.90
2019-01-23T11:41:38.146Z,56.60
2019-01-23T11:44:08.767Z,58.30
2019-01-23T11:46:37.820Z,58.40
2019-01-23T11:49:05.947Z,58.90
2019-01-23T11:51:33.928Z,58.40
2019-01-23T11:54:02.293Z,58.10
2019-01-23T11:56:30.418Z,57.70
2019-01-23T11:58:58.442Z,60.30
2019-01-23T12:01:27.720Z,59.10
2019-01-23T12:03:56.020Z,59.30
2019-01-23T12:06:23.982Z,59.10
2019-01-23T12:08:52.158Z,59.30
2019-01-23T12:11:20.128Z,58.60
2019-01-23T12:13:48.398Z,59.80
2019-01-23T12:16:16.373Z,59.20
2019-01-23T12:18:45.398Z,57.70
2019-01-23T12:21:13.429Z,58.30
2019-01-23T12:23:42.814Z,57.60
2019-01-23T12:26:11.113Z,57.70
2019-01-23T12:28:39.095Z,58.60
2019-01-23T12:31:07.061Z,58.00
2019-01-23T12:33:36.925Z,57.80
2019-01-23T12:36:04.921Z,58.70
2019-01-23T12:38:33.017Z,58.50
2019-01-23T12:41:02.846Z,57.60
2019-01-23T12:43:32.714Z,58.30
2019-01-23T12:46:00.712Z,58.60
2019-01-23T12:48:29.847Z,57.90
2019-01-23T12:50:58.905Z,57.90
2019-01-23T12:53:27.058Z,58.40
2019-01-23T12:55:55.226Z,58.50
2019-01-23T12:58:23.229Z,58.20
2019-01-23T13:00:51.678Z,57.70
2019-01-23T13:03:19.778Z,58.70
2019-01-23T13:05:47.741Z,58.40
2019-01-23T13:08:15.735Z,57.40
2019-01-23T13:10:43.888Z,57.40
2019-01-23T13:13:11.966Z,55.90
2019-01-23T13:15:40.182Z,56.00
2019-01-23T13:18:08.081Z,56.10
2019-01-23T13:20:37.778Z,60.30
2019-01-23T13:23:07.622Z,63.40
2019-01-23T13:25:35.625Z,65.20
2019-01-23T13:28:03.872Z,65.10
2019-01-23T13:30:32.151Z,63.60
2019-01-23T13:33:00.530Z,64.60
2019-01-23T13:35:28.798Z,63.90
2019-01-23T13:37:57.716Z,62.60
2019-01-23T13:40:25.668Z,62.10
2019-01-23T13:42:53.734Z,62.20
2019-01-23T13:45:21.915Z,60.70
2019-01-23T13:47:49.882Z,60.10
2019-01-23T13:50:18.369Z,58.90
2019-01-23T13:52:46.433Z,61.60
2019-01-23T13:55:15.529Z,60.10
2019-01-23T13:57:43.501Z,60.20
2019-01-23T14:00:11.577Z,59.90
2019-01-23T14:02:41.544Z,60.20
2019-01-23T14:05:09.531Z,61.90
2019-01-23T14:07:37.526Z,62.30
2019-01-23T14:10:05.575Z,62.50
2019-01-23T14:12:33.772Z,63.00
2019-01-23T14:15:01.730Z,63.10
2019-01-23T14:17:29.918Z,63.70
2019-01-23T14:19:58.093Z,62.30
2019-01-23T14:22:26.266Z,62.70
2019-01-23T14:24:54.234Z,62.50
2019-01-23T14:27:22.291Z,63.00
2019-01-23T14:29:50.592Z,62.50
2019-01-23T14:32:18.760Z,63.50
2019-01-23T14:34:47.037Z,62.30
2019-01-23T14:37:15.295Z,59.00
2019-01-23T14:39:43.588Z,57.60
2019-01-23T14:42:11.659Z,56.80
2019-01-23T14:44:39.607Z,56.30
2019-01-23T14:47:07.526Z,57.50
2019-01-23T14:49:35.752Z,58.80
2019-01-23T14:52:05.327Z,59.00
2019-01-23T14:54:33.452Z,59.40
2019-01-23T14:57:01.403Z,59.20
2019-01-23T14:59:29.393Z,59.50
2019-01-23T15:01:57.360Z,59.80
2019-01-23T15:04:25.556Z,60.10
2019-01-23T15:06:53.588Z,60.00
2019-01-23T15:09:21.840Z,58.80
2019-01-23T15:11:49.929Z,59.50
2019-01-23T15:14:18.007Z,60.00
2019-01-23T15:16:46.008Z,61.20
2019-01-23T15:19:14.938Z,61.80
2019-01-23T15:21:43.066Z,62.60
2019-01-23T15:24:11.445Z,63.70
2019-01-23T15:26:39.388Z,64.80
2019-01-23T15:29:07.789Z,64.70
2019-01-23T15:31:37.685Z,66.60
2019-01-23T15:34:05.674Z,66.40
2019-01-23T15:36:33.721Z,66.60
2019-01-23T15:39:01.903Z,67.00
2019-01-23T15:41:30.197Z,67.10
2019-01-23T15:43:58.167Z,67.10
2019-01-23T15:46:26.210Z,67.70
2019-01-23T15:48:54.206Z,68.10
2019-01-23T15:51:22.280Z,69.00
2019-01-23T15:53:51.655Z,68.60
2019-01-23T15:56:19.627Z,68.50
2019-01-23T15:58:47.599Z,68.30
2019-01-23T16:01:16.850Z,67.80
2019-01-23T16:03:44.999Z,68.50
2019-01-23T16:06:12.939Z,67.90
2019-01-23T16:08:41.238Z,69.00
2019-01-23T16:11:09.196Z,69.30
2019-01-23T16:13:42.425Z,68.80
2019-01-23T16:16:09.420Z,68.50
2019-01-23T16:18:37.417Z,67.60
2019-01-23T16:21:05.369Z,68.10
2019-01-23T16:23:33.355Z,67.60
2019-01-23T16:26:03.048Z,67.60
2019-01-23T16:28:31.348Z,68.00
2019-01-23T16:30:59.516Z,67.90
2019-01-23T16:33:27.588Z,68.20
2019-01-23T16:35:56.774Z,68.40
2019-01-23T16:38:24.835Z,69.20
2019-01-23T16:40:52.831Z,68.80
2019-01-23T16:43:21.001Z,69.00
2019-01-23T16:45:48.972Z,68.90
2019-01-23T16:48:17.043Z,69.00
2019-01-23T16:50:45.191Z,69.20
2019-01-23T16:53:13.597Z,69.80
2019-01-23T16:55:41.566Z,70.00
2019-01-23T16:58:09.535Z,69.90
2019-01-23T17:00:37.693Z,71.10
2019-01-23T17:03:05.891Z,71.30
2019-01-23T17:05:33.853Z,71.30
2019-01-23T17:08:01.929Z,71.90
2019-01-23T17:10:29.970Z,70.80
2019-01-23T17:12:58.155Z,70.60
2019-01-23T17:15:26.245Z,70.30
2019-01-23T17:17:56.116Z,69.70
2019-01-23T17:20:25.133Z,69.90
2019-01-23T17:22:53.326Z,70.20
2019-01-23T17:25:23.370Z,68.80
2019-01-23T17:27:53.209Z,68.70
2019-01-23T17:30:21.231Z,69.00
2019-01-23T17:32:49.134Z,68.40
2019-01-23T17:35:17.271Z,69.10
2019-01-23T17:37:45.342Z,68.60
2019-01-23T17:40:14.573Z,68.90
2019-01-23T17:42:42.921Z,68.60
2019-01-23T17:45:10.995Z,68.20
2019-01-23T17:47:39.061Z,68.10
2019-01-23T17:50:07.113Z,67.30
2019-01-23T17:52:35.080Z,67.50
2019-01-23T17:55:03.071Z,67.30
2019-01-23T17:57:31.451Z,66.60
2019-01-23T17:59:59.422Z,66.00
2019-01-23T18:02:29.373Z,65.10
2019-01-23T18:04:57.665Z,65.30
2019-01-23T18:07:25.684Z,64.00
2019-01-23T18:09:53.653Z,63.20
2019-01-23T18:12:23.774Z,63.70
2019-01-23T18:14:51.731Z,61.60
2019-01-23T18:17:19.715Z,61.80
2019-01-23T18:19:50.017Z,61.10
2019-01-23T18:22:18.212Z,61.00
2019-01-23T18:24:46.179Z,59.40
2019-01-23T18:27:14.457Z,59.10
2019-01-23T18:29:42.738Z,59.30
2019-01-23T18:32:10.933Z,59.30
2019-01-23T18:34:38.980Z,58.90
2019-01-23T18:37:07.052Z,59.00
2019-01-23T18:39:34.994Z,59.30
2019-01-23T18:42:03.269Z,59.40
2019-01-23T18:44:32.279Z,58.90
2019-01-23T18:47:01.890Z,58.40
2019-01-23T18:49:29.842Z,57.90
2019-01-23T18:51:58.132Z,58.20
2019-01-23T18:54:26.320Z,58.20
2019-01-23T18:56:54.465Z,58.10
2019-01-23T18:59:22.671Z,57.90
2019-01-23T19:01:50.647Z,57.90
2019-01-23T19:04:18.709Z,57.70
2019-01-23T19:06:46.786Z,57.40
2019-01-23T19:09:14.854Z,57.60
2019-01-23T19:11:43.029Z,57.50
2019-01-23T19:14:11.282Z,57.60
2019-01-23T19:16:42.018Z,57.70
2019-01-23T19:19:10.008Z,57.30
2019-01-23T19:21:40.947Z,56.90
2019-01-23T19:24:09.221Z,57.10
2019-01-23T19:26:38.176Z,56.80
2019-01-23T19:29:06.187Z,57.00
2019-01-23T19:31:34.462Z,56.90
2019-01-23T19:34:02.507Z,57.50
2019-01-23T19:36:30.584Z,57.80
2019-01-23T19:38:58.681Z,59.00
2019-01-23T19:41:26.647Z,59.30
2019-01-23T19:43:55.736Z,59.70
2019-01-23T19:46:23.688Z,60.90
2019-01-23T19:48:52.669Z,61.50
2019-01-23T19:51:20.678Z,62.30
2019-01-23T19:53:48.747Z,62.50
2019-01-23T19:56:16.720Z,63.10
2019-01-23T19:58:44.689Z,63.40
2019-01-23T20:01:12.862Z,63.50
2019-01-23T20:03:41.325Z,63.10
2019-01-23T20:06:09.619Z,62.50
2019-01-23T20:08:37.777Z,62.10
2019-01-23T20:11:06.093Z,62.50
2019-01-23T20:13:36.073Z,61.90
2019-01-23T20:16:04.342Z,61.90
2019-01-23T20:18:32.619Z,62.80
2019-01-23T20:21:01.021Z,62.00
2019-01-23T20:23:29.350Z,63.10
2019-01-23T20:25:57.337Z,64.50
2019-01-23T20:28:26.572Z,64.90
2019-01-23T20:30:55.369Z,65.20
2019-01-23T20:33:27.901Z,65.90
2019-01-23T20:35:53.506Z,65.80
2019-01-23T20:38:21.723Z,66.00
2019-01-23T20:40:49.979Z,65.20
2019-01-23T20:43:20.554Z,65.70
2019-01-23T20:45:48.672Z,65.80
2019-01-23T20:48:16.850Z,65.50
2019-01-23T20:50:46.086Z,65.00
2019-01-23T20:53:14.025Z,64.90
2019-01-23T20:55:42.938Z,64.70
2019-01-23T20:58:11.079Z,64.70
2019-01-23T21:00:39.503Z,64.70
2019-01-23T21:03:10.848Z,64.80
2019-01-23T21:05:39.126Z,65.10
2019-01-23T21:08:07.265Z,64.30
2019-01-23T21:10:35.460Z,64.50
2019-01-23T21:13:03.506Z,64.10
2019-01-23T21:15:31.583Z,63.80
2019-01-23T21:17:59.651Z,64.20
2019-01-23T21:20:27.950Z,64.20
2019-01-23T21:22:55.956Z,64.70
2019-01-23T21:25:23.993Z,65.10
2019-01-23T21:27:52.242Z,65.00
2019-01-23T21:30:20.249Z,65.10
2019-01-23T21:32:48.210Z,65.30
2019-01-23T21:35:16.381Z,65.30
2019-01-23T21:37:44.327Z,65.80
2019-01-23T21:40:12.322Z,65.50
2019-01-23T21:42:40.303Z,65.90
2019-01-23T21:45:09.314Z,65.60
2019-01-23T21:47:37.360Z,65.70
2019-01-23T21:50:05.427Z,65.30
2019-01-23T21:52:33.398Z,65.70
2019-01-23T21:55:01.366Z,66.10
2019-01-23T21:57:29.438Z,66.20
2019-01-23T21:59:57.492Z,65.10
2019-01-23T22:02:25.582Z,66.10
2019-01-23T22:04:55.060Z,66.50
2019-01-23T22:07:23.027Z,66.10
2019-01-23T22:09:51.027Z,67.10
2019-01-23T22:12:19.096Z,66.00
2019-01-23T22:14:47.067Z,66.30
2019-01-23T22:17:15.114Z,65.50
2019-01-23T22:19:43.107Z,66.00
2019-01-23T22:22:12.503Z,65.20
2019-01-23T22:24:42.288Z,64.70
2019-01-23T22:27:10.292Z,65.20
2019-01-23T22:29:38.235Z,65.30
2019-01-23T22:32:06.232Z,66.10
2019-01-23T22:34:34.283Z,66.70
2019-01-23T22:37:02.256Z,67.00
2019-01-23T22:39:30.218Z,67.30
2019-01-23T22:41:58.313Z,68.10
2019-01-23T22:44:26.386Z,67.90
2019-01-23T22:46:54.664Z,67.30
2019-01-23T22:49:22.717Z,67.80
2019-01-23T22:51:50.805Z,68.50
2019-01-23T22:54:18.883Z,68.60
2019-01-23T22:56:46.928Z,69.20
2019-01-23T22:59:16.734Z,69.60
2019-01-23T23:01:44.834Z,70.00
2019-01-23T23:04:12.802Z,70.10
2019-01-23T23:06:40.770Z,70.40
2019-01-23T23:09:09.762Z,70.40
2019-01-23T23:11:38.117Z,71.70
2019-01-23T23:14:06.114Z,70.80
2019-01-23T23:16:34.974Z,70.50
2019-01-23T23:19:03.159Z,70.50
2019-01-23T23:21:31.342Z,70.50
2019-01-23T23:24:00.968Z,70.30
2019-01-23T23:26:29.114Z,70.50
2019-01-23T23:28:58.829Z,70.50
2019-01-23T23:31:28.812Z,69.20
2019-01-23T23:33:57.215Z,68.50
2019-01-23T23:36:25.210Z,68.50
2019-01-23T23:38:53.593Z,69.00
2019-01-23T23:41:21.868Z,68.30
2019-01-23T23:43:50.945Z,68.90
2019-01-23T23:46:19.111Z,68.30
2019-01-23T23:48:47.091Z,68.10
2019-01-23T23:51:15.077Z,68.00
2019-01-23T23:53:43.154Z,68.00
2019-01-23T23:56:11.098Z,67.70
2019-01-23T23:58:40.321Z,66.80
